Time;durP1;ratioP1;P1;durP2;ratioP2;P2;SDS_P1;SDS_P2;PMS_P1;PMS_P2;Temp;Humidity;BMP_temperature;BMP_pressure;BME280_temperature;BME280_humidity;BME280_pressure;Samples;Min_cycle;Max_cycle;Signal;HPM_P1;HPM_P2
2022/06/13 00:02:34;;;;;;;7.83;2.83;;;;;;;15.42;84.24;101042.47;8392321;28;20355;-63
2022/06/13 00:06:35;;;;;;;8.52;3.33;;;;;;;15.20;86.10;101044.81;8390709;28;20354;-63
2022/06/13 00:10:36;;;;;;;10.80;2.78;;;;;;;15.31;84.37;101047.28;8391052;28;20040;-63
2022/06/13 00:14:37;;;;;;;8.20;3.40;;;;;;;15.26;84.29;101046.91;8369428;28;20033;-63
2022/06/13 00:18:38;;;;;;;5.82;2.67;;;;;;;15.16;84.31;101044.25;8369327;28;20048;-63
2022/06/13 00:22:39;;;;;;;6.90;2.53;;;;;;;15.35;83.98;101033.19;8366291;28;20402;-63
2022/06/13 00:26:40;;;;;;;9.10;2.78;;;;;;;15.08;86.47;101022.41;8351881;28;20274;-63
2022/06/13 00:30:40;;;;;;;7.25;3.03;;;;;;;14.94;86.61;101028.41;8359956;28;20084;-63
2022/06/13 00:34:40;;;;;;;6.10;2.70;;;;;;;14.59;88.90;101020.25;8359136;28;20056;-63
2022/06/13 00:38:41;;;;;;;7.68;3.38;;;;;;;14.38;89.87;101019.66;8354205;28;20341;-63
2022/06/13 00:42:42;;;;;;;9.88;3.13;;;;;;;14.29;90.22;101015.13;8366237;28;20033;-63
2022/06/13 00:46:42;;;;;;;5.65;2.80;;;;;;;14.28;91.37;101008.00;8353358;28;20406;-63
2022/06/13 00:50:52;;;;;;;11.25;3.30;;;;;;;14.12;92.59;101002.28;8366811;28;20041;-63
2022/06/13 00:54:54;;;;;;;5.70;2.85;;;;;;;14.21;94.04;101016.88;8370832;28;20040;-63
2022/06/13 00:58:59;;;;;;;6.35;2.58;;;;;;;14.34;91.56;101023.69;8381942;28;20120;-63
2022/06/13 01:03:02;;;;;;;7.10;2.67;;;;;;;14.01;92.12;101021.53;8363310;28;20033;-63
2022/06/13 01:07:03;;;;;;;9.27;2.85;;;;;;;13.73;93.99;101025.25;8342798;28;20029;-63
2022/06/13 01:11:17;;;;;;;8.13;3.17;;;;;;;13.91;93.68;101015.31;8356536;28;20039;-63
2022/06/13 01:15:44;;;;;;;9.55;3.22;;;;;;;13.86;94.10;101012.16;8351461;28;20056;-63
2022/06/13 01:20:24;;;;;;;8.07;3.05;;;;;;;13.95;93.87;101014.00;8369130;28;20115;-63
2022/06/13 01:30:24;;;;;;;9.10;3.47;;;;;;;13.83;93.76;101007.91;8306614;27;20391;-62
2022/06/13 01:34:23;;;;;;;9.95;3.30;;;;;;;13.46;97.48;101009.75;8335818;28;20109;-62
2022/06/13 01:38:40;;;;;;;7.13;2.95;;;;;;;13.81;94.34;101019.91;8317332;28;20075;-62
2022/06/13 01:42:58;;;;;;;8.30;3.55;;;;;;;13.76;96.31;101027.66;8317514;28;20042;-62
2022/06/13 01:47:08;;;;;;;11.85;3.63;;;;;;;13.48;96.62;101029.44;8318869;28;20037;-62
2022/06/13 01:55:50;;;;;;;14.05;3.30;;;;;;;13.40;94.95;101031.19;8387952;27;20981;-62
2022/06/13 02:00:02;;;;;;;9.30;3.60;;;;;;;13.55;95.17;101032.44;8376601;28;20131;-62
2022/06/13 02:04:34;;;;;;;7.97;3.25;;;;;;;13.51;94.07;101042.75;8342097;28;20247;-62
2022/06/13 02:08:40;;;;;;;11.18;4.30;;;;;;;13.11;97.55;101042.09;8346734;28;20041;-62
2022/06/13 02:12:43;;;;;;;6.82;3.60;;;;;;;13.17;98.09;101046.06;8350076;28;20033;-62
2022/06/13 02:17:01;;;;;;;9.07;3.33;;;;;;;13.16;95.43;101038.94;8350983;28;20490;-62
2022/06/13 02:21:08;;;;;;;9.68;3.75;;;;;;;13.25;96.37;101038.06;8350838;28;20036;-62
2022/06/13 02:29:39;;;;;;;12.30;3.97;;;;;;;13.32;94.23;101037.34;8384370;27;20370;-62
2022/06/13 02:33:46;;;;;;;18.38;3.88;;;;;;;13.34;94.32;101037.22;8358374;28;20386;-62
2022/06/13 02:37:53;;;;;;;13.80;3.45;;;;;;;13.24;94.95;101030.94;8371017;28;20038;-62
2022/06/13 02:41:59;;;;;;;9.75;3.67;;;;;;;13.32;95.04;101028.34;8364651;28;20040;-62
2022/06/13 02:46:06;;;;;;;7.03;3.35;;;;;;;13.09;97.25;101026.97;8356021;28;20525;-62
2022/06/13 02:50:15;;;;;;;12.98;3.95;;;;;;;12.98;98.15;101013.50;8364323;28;20098;-62
2022/06/13 02:54:22;;;;;;;15.98;4.22;;;;;;;13.08;97.16;101020.66;8362396;28;20043;-62
2022/06/13 02:58:36;;;;;;;16.48;3.83;;;;;;;12.92;98.29;101019.50;8364738;28;20120;-62
2022/06/13 03:03:04;;;;;;;15.23;5.00;;;;;;;12.86;97.96;101017.34;8375312;28;20116;-63
2022/06/13 03:07:15;;;;;;;12.07;4.10;;;;;;;12.81;98.75;101004.22;8381052;28;20037;-63
2022/06/13 03:11:47;;;;;;;13.43;4.10;;;;;;;12.89;98.21;101008.91;8357830;28;20041;-63
2022/06/13 03:16:02;;;;;;;11.45;3.83;;;;;;;12.86;99.33;101009.22;8378231;28;20090;-63
2022/06/13 03:20:16;;;;;;;13.32;4.30;;;;;;;12.63;99.88;100997.78;8372009;28;20083;-63
2022/06/13 03:24:29;;;;;;;13.38;3.78;;;;;;;13.02;98.19;101020.41;8360134;28;20041;-63
2022/06/13 03:28:41;;;;;;;8.63;3.55;;;;;;;13.14;95.70;101025.50;8351468;28;20060;-62
2022/06/13 03:33:39;;;;;;;14.27;4.60;;;;;;;12.83;95.98;101025.78;8362139;28;20045;-62
2022/06/13 03:37:14;;;;;;;9.13;3.60;;;;;;;12.80;97.39;101034.19;8368868;28;20048;-62
2022/06/13 03:41:18;;;;;;;14.90;5.32;;;;;;;12.43;100.00;101041.28;8328324;28;20065;-62
2022/06/13 03:45:26;;;;;;;16.17;4.47;;;;;;;12.65;99.14;101039.19;8354563;28;20188;-62
2022/06/13 03:49:33;;;;;;;17.27;4.70;;;;;;;12.75;98.83;101033.78;8357721;28;20025;-63
2022/06/13 03:53:41;;;;;;;13.35;4.47;;;;;;;13.08;97.43;101026.09;8353455;28;20402;-62
2022/06/13 03:57:50;;;;;;;11.75;4.68;;;;;;;13.19;96.80;101038.66;8346140;28;20497;-62
2022/06/13 04:01:57;;;;;;;11.05;4.22;;;;;;;13.06;98.01;101032.66;8351569;28;20042;-62
2022/06/13 04:06:05;;;;;;;15.32;4.72;;;;;;;13.07;98.03;101035.25;8338398;28;20040;-62
2022/06/13 04:10:10;;;;;;;13.40;4.40;;;;;;;13.25;98.09;101021.78;8358098;28;20037;-62
2022/06/13 04:14:48;;;;;;;9.55;4.40;;;;;;;13.54;96.38;101028.00;8357257;28;20045;-62
2022/06/13 04:19:16;;;;;;;10.48;4.60;;;;;;;13.60;94.83;101013.81;8357582;28;20106;-63
2022/06/13 04:23:44;;;;;;;13.35;4.82;;;;;;;13.61;95.10;101018.28;8334449;28;20029;-63
2022/06/13 04:28:09;;;;;;;14.77;4.63;;;;;;;13.49;96.74;101008.59;8336076;28;20106;-63
2022/06/13 04:32:13;;;;;;;11.15;4.63;;;;;;;13.49;97.23;101016.72;8334843;28;20042;-63
2022/06/13 04:36:15;;;;;;;12.50;4.40;;;;;;;14.02;95.09;101033.25;8332343;28;20041;-63
2022/06/13 04:40:21;;;;;;;9.35;3.67;;;;;;;14.05;95.14;101033.81;8344451;28;20048;-63
2022/06/13 04:44:25;;;;;;;10.35;4.25;;;;;;;14.14;96.00;101046.53;8336394;28;20034;-63
2022/06/13 04:48:26;;;;;;;11.77;4.53;;;;;;;14.33;94.68;101049.16;8328802;28;20135;-63
2022/06/13 04:52:31;;;;;;;10.07;4.85;;;;;;;14.30;94.85;101044.03;8339995;28;20032;-63
2022/06/13 04:56:33;;;;;;;15.98;4.65;;;;;;;14.58;97.47;101036.72;8335146;28;20067;-63
2022/06/13 05:00:35;;;;;;;13.27;4.75;;;;;;;14.31;96.11;101048.47;8339252;28;20055;-63
2022/06/13 05:04:35;;;;;;;14.07;4.18;;;;;;;14.42;96.12;101056.41;8344986;28;20494;-63
2022/06/13 05:08:40;;;;;;;11.82;4.20;;;;;;;15.85;91.47;101057.91;8346264;28;20401;-63
2022/06/13 05:12:44;;;;;;;8.85;4.38;;;;;;;15.19;93.26;101052.13;8346427;28;20047;-63
2022/06/13 05:17:14;;;;;;;11.85;4.18;;;;;;;14.95;95.79;101062.78;8340720;28;20050;-63
2022/06/13 05:21:40;;;;;;;11.02;4.75;;;;;;;14.73;97.90;101065.13;8290843;28;20041;-63
2022/06/13 05:25:53;;;;;;;17.85;5.63;;;;;;;15.11;94.90;101067.53;8350832;28;20102;-63
2022/06/13 05:29:53;;;;;;;15.77;5.10;;;;;;;15.28;92.62;101063.97;8322351;28;20405;-63
2022/06/13 05:33:55;;;;;;;18.10;5.13;;;;;;;15.39;91.75;101061.88;8326075;28;20041;-63
2022/06/13 05:38:00;;;;;;;18.17;5.97;;;;;;;15.34;91.99;101064.16;8334604;28;20326;-63
2022/06/13 05:42:01;;;;;;;14.38;4.78;;;;;;;15.44;91.53;101075.84;8332454;28;20041;-63
2022/06/13 05:46:03;;;;;;;12.50;5.45;;;;;;;15.61;90.68;101072.25;8318652;28;20033;-63
2022/06/13 05:50:04;;;;;;;16.73;4.97;;;;;;;15.90;89.34;101077.38;8363100;28;20057;-63
2022/06/13 05:54:05;;;;;;;16.20;4.97;;;;;;;15.89;89.92;101074.81;8351088;28;20112;-63
2022/06/13 05:58:06;;;;;;;18.23;6.03;;;;;;;15.56;91.31;101080.03;8345641;28;20110;-63
2022/06/13 06:02:09;;;;;;;15.05;5.57;;;;;;;16.22;90.16;101087.63;8323744;28;20556;-63
2022/06/13 06:06:14;;;;;;;13.23;5.10;;;;;;;16.43;89.50;101093.50;8332498;28;20724;-63
2022/06/13 06:10:21;;;;;;;10.95;4.78;;;;;;;16.17;92.39;101100.91;8329154;28;20434;-63
2022/06/13 06:14:21;;;;;;;12.30;4.93;;;;;;;16.49;93.98;101106.53;8334351;28;20029;-63
2022/06/13 06:18:23;;;;;;;15.43;4.67;;;;;;;16.73;89.27;101109.38;8329962;28;20037;-63
2022/06/13 06:22:23;;;;;;;22.30;5.32;;;;;;;16.85;85.17;101103.44;8334593;28;20276;-63
2022/06/13 06:26:27;;;;;;;17.10;4.38;;;;;;;17.24;80.75;101098.22;8339414;28;20582;-63
2022/06/13 06:30:27;;;;;;;13.07;4.18;;;;;;;17.30;79.24;101103.00;8336749;28;20094;-63
2022/06/13 06:34:28;;;;;;;9.35;3.50;;;;;;;17.25;79.04;101102.66;8344006;28;20068;-63
2022/06/13 06:38:28;;;;;;;13.07;4.20;;;;;;;17.08;79.08;101103.66;8352257;28;20540;-63
2022/06/13 06:42:29;;;;;;;12.70;4.00;;;;;;;17.01;79.32;101108.94;8351702;28;20349;-63
2022/06/13 06:46:29;;;;;;;18.67;4.32;;;;;;;17.40;79.31;101120.97;8351217;28;20032;-63
2022/06/13 06:50:32;;;;;;;15.73;4.28;;;;;;;18.11;77.87;101114.78;8341903;28;20418;-63
2022/06/13 07:03:06;;;;;;;16.35;4.20;;;;;;;17.57;80.01;101117.22;8326050;27;20411;-62
2022/06/13 07:07:06;;;;;;;18.98;4.28;;;;;;;17.85;80.80;101125.94;8315235;28;20041;-62
2022/06/13 07:12:17;;;;;;;17.55;5.38;;;;;;;17.89;80.75;101123.69;8314102;28;20481;-62
2022/06/13 07:15:38;;;;;;;23.50;5.38;;;;;;;17.67;81.23;101122.53;8312525;28;20064;-62
2022/06/13 07:19:38;;;;;;;21.55;5.07;;;;;;;17.76;82.53;101128.84;8309160;28;20034;-62
2022/06/13 07:23:39;;;;;;;23.35;6.40;;;;;;;17.72;83.50;101131.09;8312620;28;20410;-62
2022/06/13 07:27:39;;;;;;;25.27;6.45;;;;;;;18.25;83.07;101131.34;8313319;28;20297;-62
2022/06/13 07:31:44;;;;;;;21.17;6.63;;;;;;;18.97;80.92;101136.53;8314537;28;20049;-62
2022/06/13 07:35:44;;;;;;;18.15;7.93;;;;;;;19.65;78.74;101141.25;8314275;28;20272;-62
2022/06/13 07:39:45;;;;;;;27.67;8.90;;;;;;;19.51;77.38;101162.09;8314864;28;20037;-62
2022/06/13 07:43:45;;;;;;;37.23;9.70;;;;;;;19.88;77.22;101147.59;8314113;28;20479;-62
2022/06/13 07:47:46;;;;;;;27.52;9.73;;;;;;;20.56;77.18;101148.28;8314089;28;20269;-62
2022/06/13 07:51:47;;;;;;;31.95;10.38;;;;;;;21.08;74.48;101154.50;8311549;28;20060;-62
2022/06/13 07:55:47;;;;;;;26.55;10.20;;;;;;;20.75;75.05;101162.31;8313084;28;20073;-63
2022/06/13 07:59:47;;;;;;;32.20;9.85;;;;;;;20.77;77.73;101170.34;8313080;28;20532;-63
2022/06/13 08:03:48;;;;;;;26.43;9.37;;;;;;;21.49;74.28;101168.50;8318412;28;20049;-63
2022/06/13 08:07:49;;;;;;;28.95;9.57;;;;;;;21.90;74.14;101167.72;8343081;28;20486;-63
2022/06/13 08:11:51;;;;;;;27.60;9.90;;;;;;;21.52;74.98;101171.72;8333928;28;20037;-63
2022/06/13 08:15:52;;;;;;;31.08;10.15;;;;;;;21.39;73.70;101179.84;8320231;28;20122;-63
2022/06/13 08:19:52;;;;;;;26.13;11.23;;;;;;;21.63;74.06;101167.59;8314235;28;20084;-62
2022/06/13 08:23:53;;;;;;;30.27;10.32;;;;;;;21.59;75.11;101169.88;8318004;28;20045;-62
2022/06/13 08:27:54;;;;;;;22.38;8.32;;;;;;;21.66;72.31;101176.34;8321008;28;20356;-63
2022/06/13 08:31:55;;;;;;;24.65;7.80;;;;;;;21.64;72.89;101175.66;8312486;28;20481;-63
2022/06/13 08:35:56;;;;;;;24.10;7.70;;;;;;;21.96;70.28;101177.91;8289300;28;20053;-63
2022/06/13 08:39:56;;;;;;;24.70;7.32;;;;;;;21.84;68.47;101182.28;8287392;28;20041;-63
2022/06/13 08:44:09;;;;;;;22.13;7.22;;;;;;;21.71;68.08;101179.34;8287679;28;20042;-63
2022/06/13 08:48:23;;;;;;;18.63;7.05;;;;;;;21.67;68.61;101182.69;8313784;28;20026;-63
2022/06/13 08:52:31;;;;;;;16.50;5.68;;;;;;;21.88;68.09;101180.81;8320693;28;20033;-63
2022/06/13 08:56:36;;;;;;;16.38;6.03;;;;;;;21.74;64.79;101200.16;8320905;28;20042;-63
2022/06/13 09:00:38;;;;;;;;;;;;;;;20.92;67.27;101195.94;8320773;28;20060;-63
2022/06/13 09:05:01;;;;;;;16.92;5.53;;;;;;;20.87;67.51;101202.00;8311474;28;20297;-63
2022/06/13 09:09:10;;;;;;;19.48;5.15;;;;;;;22.02;62.86;101188.13;8319490;28;20045;-63
2022/06/13 09:13:39;;;;;;;15.30;4.65;;;;;;;22.30;63.43;101182.66;8319552;28;20080;-63
2022/06/13 09:17:50;;;;;;;12.43;3.15;;;;;;;21.01;61.82;101208.53;8321243;28;20505;-63
2022/06/13 09:22:03;;;;;;;11.35;3.85;;;;;;;21.03;62.79;101206.47;8318318;28;20041;-63
2022/06/13 09:26:12;;;;;;;14.88;3.95;;;;;;;20.91;65.13;101205.22;8301008;28;20041;-63
2022/06/13 09:30:19;;;;;;;16.70;3.72;;;;;;;21.62;63.80;101197.03;8285926;28;20046;-63
2022/06/13 09:34:48;;;;;;;12.73;4.13;;;;;;;22.14;60.96;101189.31;8287331;28;20034;-63
2022/06/13 09:38:56;;;;;;;15.13;3.38;;;;;;;22.51;60.74;101188.97;8319473;28;20048;-63
2022/06/13 09:43:11;;;;;;;10.77;3.47;;;;;;;22.98;60.42;101202.88;8318506;28;20037;-63
2022/06/13 09:47:32;;;;;;;16.45;3.72;;;;;;;22.31;59.80;101207.25;8313423;28;20525;-63
2022/06/13 09:52:02;;;;;;;13.68;3.25;;;;;;;22.58;57.49;101200.06;8314029;28;20504;-63
2022/06/13 09:56:15;;;;;;;9.85;2.83;;;;;;;22.45;58.83;101208.22;8318902;28;20040;-63
2022/06/13 10:00:41;;;;;;;10.48;3.72;;;;;;;23.12;60.07;101214.81;8318502;28;20380;-63
2022/06/13 10:09:47;;;;;;;11.48;3.38;;;;;;;23.19;58.12;101224.84;8379620;27;20809;-62
2022/06/13 10:14:16;;;;;;;13.73;2.90;;;;;;;26.18;52.47;101220.06;8372963;28;20041;-62
2022/06/13 10:18:50;;;;;;;13.30;2.92;;;;;;;28.56;46.51;101236.16;8379566;28;20035;-62
2022/06/13 10:23:30;;;;;;;8.40;2.95;;;;;;;27.64;47.82;101241.41;8374857;28;20040;-62
2022/06/13 10:27:57;;;;;;;10.43;3.10;;;;;;;24.48;53.35;101221.75;8372496;28;20114;-62
2022/06/13 10:32:27;;;;;;;17.52;3.30;;;;;;;22.65;55.86;101229.38;8378104;28;20147;-62
2022/06/13 10:41:04;;;;;;;14.95;2.78;;;;;;;21.75;58.80;101241.25;8364163;28;20479;-62
2022/06/13 10:45:07;;;;;;;10.43;3.17;;;;;;;22.44;59.11;101226.66;8359523;28;20617;-62
2022/06/13 10:49:19;;;;;;;12.53;2.80;;;;;;;24.51;52.59;101226.84;8353528;28;20489;-62
2022/06/13 10:53:26;;;;;;;10.65;2.40;;;;;;;22.65;56.85;101223.88;8346739;28;20040;-62
2022/06/13 10:57:31;;;;;;;13.02;3.08;;;;;;;22.64;55.22;101226.84;8345974;28;20029;-62
2022/06/13 11:01:32;;;;;;;9.30;1.80;;;;;;;25.92;48.75;101214.66;8345140;28;20051;-62
2022/06/13 11:06:04;;;;;;;8.68;2.25;;;;;;;26.32;49.19;101215.25;8344956;28;20041;-62
2022/06/13 11:10:05;;;;;;;5.10;1.77;;;;;;;27.93;46.08;101224.75;8344690;28;20033;-62
2022/06/13 11:23:08;;;;;;;7.20;2.03;;;;;;;23.30;51.81;101228.09;8385545;27;20424;-62
2022/06/13 11:27:42;;;;;;;12.23;2.55;;;;;;;23.64;54.52;101220.56;8379526;28;20153;-62
2022/06/13 11:31:52;;;;;;;6.82;1.88;;;;;;;26.40;45.83;101218.59;8380132;28;20493;-62
2022/06/13 11:36:15;;;;;;;15.18;2.25;;;;;;;28.05;43.56;101227.56;8376485;28;20490;-62
2022/06/13 11:40:17;;;;;;;8.32;2.00;;;;;;;26.53;45.48;101220.41;8376858;28;20402;-62
2022/06/13 11:44:21;;;;;;;7.35;2.10;;;;;;;26.71;48.21;101220.44;8377475;28;20106;-62
2022/06/13 11:48:22;;;;;;;9.70;2.20;;;;;;;28.00;46.52;101224.66;8378057;28;20040;-62
2022/06/13 11:53:37;;;;;;;10.65;2.38;;;;;;;26.41;48.25;101225.81;8360222;28;20033;-62
2022/06/13 12:01:31;;;;;;;12.30;2.55;;;;;;;27.36;48.94;101219.75;8314039;28;20813;-62
2022/06/13 12:05:36;;;;;;;10.15;2.42;;;;;;;26.27;45.42;101218.72;8294888;28;20121;-62
2022/06/13 12:09:36;;;;;;;10.15;2.33;;;;;;;23.31;50.33;101227.03;8281497;28;20042;-62
2022/06/13 12:13:42;;;;;;;8.20;2.00;;;;;;;23.42;52.48;101235.56;8293214;28;20132;-62
2022/06/13 12:17:52;;;;;;;8.50;2.13;;;;;;;23.28;52.36;101235.72;8284514;28;20030;-62
2022/06/13 12:22:20;;;;;;;5.65;2.33;;;;;;;23.15;50.70;101226.28;8300616;28;20049;-62
2022/06/13 12:26:40;;;;;;;7.03;1.90;;;;;;;22.57;52.17;101221.25;8296516;28;20038;-62
2022/06/13 12:31:20;;;;;;;8.80;1.83;;;;;;;23.03;49.97;101222.41;8284400;28;20495;-63
2022/06/13 12:35:48;;;;;;;4.88;1.40;;;;;;;21.95;50.15;101225.78;8280029;28;20045;-63
2022/06/13 12:40:03;;;;;;;5.53;1.60;;;;;;;21.77;50.36;101222.63;8294172;28;20471;-63
2022/06/13 12:44:19;;;;;;;8.32;2.05;;;;;;;22.56;52.00;101218.69;8291160;28;20061;-63
2022/06/13 12:48:28;;;;;;;7.45;1.98;;;;;;;22.15;53.32;101221.34;8283070;28;20102;-63
2022/06/13 12:52:53;;;;;;;7.25;1.67;;;;;;;21.77;53.60;101233.66;8285872;28;20041;-63
2022/06/13 12:57:13;;;;;;;5.03;1.20;;;;;;;21.98;50.52;101222.63;8257413;28;20040;-63
2022/06/13 13:01:18;;;;;;;6.88;1.55;;;;;;;21.78;52.25;101224.34;8246430;28;20406;-63
2022/06/13 13:05:34;;;;;;;10.77;1.92;;;;;;;22.16;55.06;101227.66;8247552;28;20541;-63
2022/06/13 13:10:15;;;;;;;4.40;1.55;;;;;;;23.42;53.14;101229.22;8272087;28;20046;-63
2022/06/13 13:14:45;;;;;;;5.57;1.15;;;;;;;23.20;49.54;101223.78;8250630;28;20080;-63
2022/06/13 13:27:52;;;;;;;6.25;1.45;;;;;;;22.83;52.70;101226.97;8385568;27;20834;-62
2022/06/13 13:32:07;;;;;;;3.42;0.93;;;;;;;22.48;53.63;101222.44;8374166;28;20078;-62
2022/06/13 13:36:16;;;;;;;6.55;1.35;;;;;;;23.18;53.53;101223.13;8345874;28;20030;-62
2022/06/13 13:40:42;;;;;;;2.97;0.80;;;;;;;22.39;49.52;101223.66;8343328;28;20029;-62
2022/06/13 13:44:50;;;;;;;4.00;1.00;;;;;;;21.95;52.64;101225.78;8339532;28;20033;-62
2022/06/13 13:48:57;;;;;;;5.68;1.05;;;;;;;22.08;51.58;101214.06;8342576;28;20124;-63
2022/06/13 13:53:03;;;;;;;6.18;1.25;;;;;;;22.55;51.61;101206.84;8344057;28;20099;-63
2022/06/13 13:57:14;;;;;;;6.38;1.08;;;;;;;22.11;50.44;101208.97;8344795;28;20114;-63
2022/06/13 14:01:39;;;;;;;4.32;0.73;;;;;;;21.97;51.60;101212.69;8346255;28;20505;-63
2022/06/13 14:10:00;;;;;;;7.97;0.95;;;;;;;21.82;50.44;101209.13;8327163;27;20912;-62
2022/06/13 14:14:06;;;;;;;2.03;0.80;;;;;;;21.61;49.35;101211.84;8330842;28;20413;-62
2022/06/13 14:18:16;;;;;;;4.13;1.02;;;;;;;21.71;51.29;101217.03;8344240;28;20414;-62
2022/06/13 14:22:22;;;;;;;4.97;0.95;;;;;;;21.51;51.58;101200.31;8344473;28;20037;-62
2022/06/13 14:31:04;;;;;;;2.75;0.68;;;;;;;21.89;50.65;101210.06;8248450;27;20408;-62
2022/06/13 14:35:31;;;;;;;3.00;0.63;;;;;;;22.29;51.86;101206.59;8244920;28;20061;-62
2022/06/13 14:39:45;;;;;;;3.22;0.80;;;;;;;21.69;51.26;101203.47;8241142;28;20077;-62
2022/06/13 14:43:58;;;;;;;4.00;0.70;;;;;;;21.52;50.26;101207.50;8265719;28;20485;-62
2022/06/13 14:48:39;;;;;;;5.47;0.70;;;;;;;21.66;48.20;101206.63;8237440;28;20351;-63
2022/06/13 14:52:39;;;;;;;2.45;0.93;;;;;;;21.73;50.40;101204.78;8240235;28;20034;-63
2022/06/13 14:56:41;;;;;;;51.43;3.53;;;;;;;21.44;52.34;101215.91;8241388;28;20153;-63
2022/06/13 15:01:21;;;;;;;6.07;0.75;;;;;;;21.81;51.20;101212.94;8240710;28;20703;-63
2022/06/13 15:05:49;;;;;;;2.42;0.65;;;;;;;22.21;49.47;101198.50;8256438;28;20042;-64
2022/06/13 15:10:00;;;;;;;4.55;0.90;;;;;;;22.14;51.68;101203.06;8222629;28;20047;-64
2022/06/13 15:14:01;;;;;;;5.68;0.80;;;;;;;22.41;54.48;101210.50;8239612;28;20070;-64
2022/06/13 15:18:03;;;;;;;5.57;0.93;;;;;;;22.16;52.10;101206.50;8271637;28;20079;-64
2022/06/13 15:22:12;;;;;;;3.15;0.98;;;;;;;22.17;53.49;101202.69;8306305;28;20047;-63
2022/06/13 15:26:31;;;;;;;1.58;0.50;;;;;;;22.23;52.14;101206.56;8299720;28;20039;-64
2022/06/13 15:30:37;;;;;;;7.97;1.42;;;;;;;21.68;50.15;101201.75;8295404;28;20039;-64
2022/06/13 15:34:37;;;;;;;3.53;0.60;;;;;;;21.58;54.08;101206.72;8249432;28;20187;-64
2022/06/13 15:38:40;;;;;;;2.70;0.63;;;;;;;21.57;53.36;101207.78;8228360;28;20035;-65
2022/06/13 15:42:41;;;;;;;2.47;0.60;;;;;;;21.64;51.31;101205.09;8208612;28;20748;-64
2022/06/13 15:46:48;;;;;;;1.98;0.60;;;;;;;22.00;52.59;101205.91;8211797;28;20065;-64
2022/06/13 15:51:11;;;;;;;5.65;1.10;;;;;;;21.87;50.89;101211.31;8216073;28;20066;-64
2022/06/13 15:55:15;;;;;;;3.55;0.65;;;;;;;22.02;55.18;101206.59;8218851;28;20046;-64
2022/06/13 15:59:15;;;;;;;;;;;;;;;22.00;51.85;101204.03;8231556;28;20043;-64
2022/06/13 16:03:18;;;;;;;7.65;0.70;;;;;;;21.85;52.42;101208.75;8220566;28;19922;-64
2022/06/13 16:07:22;;;;;;;8.55;1.00;;;;;;;21.16;54.89;101213.00;8206484;28;20284;-64
2022/06/13 16:11:27;;;;;;;4.53;0.85;;;;;;;21.05;55.07;101209.91;8200763;28;20605;-64
2022/06/13 16:15:32;;;;;;;4.78;0.90;;;;;;;21.51;53.43;101205.81;8224420;28;20120;-64
2022/06/13 16:19:36;;;;;;;4.13;0.90;;;;;;;21.47;52.96;101204.47;8208318;28;20749;-64
2022/06/13 16:23:41;;;;;;;4.32;0.88;;;;;;;20.94;53.97;101216.72;8207893;28;20840;-64
2022/06/13 16:27:46;;;;;;;3.17;0.82;;;;;;;20.69;54.90;101208.91;8232536;28;20134;-65
2022/06/13 16:31:49;;;;;;;3.47;0.70;;;;;;;20.62;54.55;101213.47;8226963;28;20047;-65
2022/06/13 16:36:00;;;;;;;1.40;0.52;;;;;;;20.97;53.19;101202.59;8234022;28;20078;-65
2022/06/13 16:40:02;;;;;;;2.80;0.75;;;;;;;21.20;53.93;101197.81;8209163;28;20031;-64
2022/06/13 16:44:06;;;;;;;4.30;0.63;;;;;;;21.37;53.91;101198.44;8218248;28;20034;-64
2022/06/13 16:48:16;;;;;;;2.80;0.60;;;;;;;21.46;54.03;101191.78;8211594;28;20059;-64
2022/06/13 16:52:22;;;;;;;7.50;0.60;;;;;;;21.44;54.19;101209.53;8236829;28;20502;-65
2022/06/13 16:56:25;;;;;;;1.40;0.52;;;;;;;21.20;52.53;101203.31;8210619;28;20034;-65
2022/06/13 17:00:31;;;;;;;2.83;0.65;;;;;;;21.02;53.41;101208.34;8208647;28;20066;-65
2022/06/13 17:04:38;;;;;;;2.63;0.40;;;;;;;21.09;52.72;101206.56;8239221;28;20563;-64
2022/06/13 17:09:06;;;;;;;2.38;0.50;;;;;;;20.92;53.24;101209.69;8254559;28;20529;-64
2022/06/13 17:13:06;;;;;;;8.65;0.70;;;;;;;20.66;53.58;101214.78;8207915;28;20042;-64
2022/06/13 17:17:12;;;;;;;3.87;0.67;;;;;;;20.44;54.72;101218.47;8223991;28;20573;-64
2022/06/13 17:21:16;;;;;;;5.68;1.02;;;;;;;20.39;53.55;101207.19;8218772;28;20623;-64
2022/06/13 17:25:19;;;;;;;4.33;0.60;;;;;;;20.34;54.61;101215.16;8209450;28;20527;-64
2022/06/13 17:33:40;;;;;;;2.88;0.70;;;;;;;20.59;53.52;101208.34;8225656;28;20063;-64
2022/06/13 17:37:40;;;;;;;7.00;1.00;;;;;;;20.49;53.33;101208.63;8222261;28;20035;-64
2022/06/13 17:41:42;;;;;;;5.13;1.05;;;;;;;20.19;54.27;101214.25;8206934;28;20354;-64
2022/06/13 17:45:45;;;;;;;3.53;0.65;;;;;;;20.09;54.32;101213.59;8229992;28;20125;-64
2022/06/13 17:49:46;;;;;;;4.70;0.55;;;;;;;20.13;54.79;101220.50;8235478;28;20043;-64
2022/06/13 17:53:46;;;;;;;5.50;0.70;;;;;;;20.19;53.98;101217.00;8212253;28;20049;-64
2022/06/13 17:57:47;;;;;;;4.72;1.20;;;;;;;20.16;53.92;101217.38;8234509;28;20043;-64
2022/06/13 18:01:48;;;;;;;5.00;0.73;;;;;;;20.09;53.54;101219.09;8207707;28;20092;-65
2022/06/13 18:05:49;;;;;;;2.85;0.82;;;;;;;19.99;54.58;101235.84;8242540;28;20327;-65
2022/06/13 18:09:51;;;;;;;4.22;1.13;;;;;;;19.94;54.73;101230.03;8210524;28;20070;-65
2022/06/13 18:13:51;;;;;;;8.40;1.60;;;;;;;19.89;53.83;101231.63;8210397;28;20050;-64
2022/06/13 18:17:53;;;;;;;3.30;0.75;;;;;;;19.76;54.29;101226.75;8211037;28;20037;-64
2022/06/13 18:21:55;;;;;;;3.70;0.77;;;;;;;19.64;54.48;101230.09;8208661;28;20140;-64
2022/06/13 18:25:55;;;;;;;3.75;0.55;;;;;;;19.58;54.06;101236.31;8185426;28;20507;-64
2022/06/13 18:29:56;;;;;;;4.03;0.93;;;;;;;19.51;54.17;101238.91;8218383;28;20076;-64
2022/06/13 18:33:56;;;;;;;7.03;0.77;;;;;;;19.43;53.51;101237.06;8213060;28;20084;-64
2022/06/13 18:37:57;;;;;;;2.10;0.70;;;;;;;19.37;53.88;101248.75;8215591;28;20066;-64
2022/06/13 18:42:01;;;;;;;4.35;0.93;;;;;;;19.28;54.09;101247.09;8217588;28;20208;-64
2022/06/13 18:46:02;;;;;;;4.75;0.70;;;;;;;19.18;54.28;101260.13;8218647;28;20038;-64
2022/06/13 18:50:04;;;;;;;1.80;0.60;;;;;;;19.06;55.30;101256.06;8218193;28;20196;-64
2022/06/13 18:54:05;;;;;;;2.75;0.70;;;;;;;18.97;55.51;101256.31;8217553;28;20050;-64
2022/06/13 18:58:05;;;;;;;5.88;0.82;;;;;;;18.86;55.27;101254.78;8217485;28;20042;-64
2022/06/13 19:02:08;;;;;;;1.35;0.60;;;;;;;18.77;55.26;101255.84;8218262;28;20046;-64
2022/06/13 19:06:10;;;;;;;5.28;0.95;;;;;;;18.68;55.48;101254.16;8216989;28;20039;-64
2022/06/13 19:10:15;;;;;;;4.78;0.80;;;;;;;18.57;55.79;101260.00;8216789;28;20211;-64
2022/06/13 19:14:16;;;;;;;;;;;;;;;18.52;56.13;101254.19;8218713;28;20043;-64
2022/06/13 19:18:26;;;;;;;5.90;0.98;;;;;;;18.42;56.51;101255.41;8222670;28;20147;-64
2022/06/13 19:22:26;;;;;;;7.97;0.88;;;;;;;18.32;56.73;101258.28;8206097;28;20510;-64
2022/06/13 19:26:28;;;;;;;4.40;0.90;;;;;;;18.20;57.14;101261.56;8219309;28;20034;-64
2022/06/13 19:30:28;;;;;;;3.05;1.05;;;;;;;18.10;57.59;101267.19;8246608;28;20039;-64
2022/06/13 19:34:36;;;;;;;8.05;1.25;;;;;;;18.02;57.72;101275.38;8217146;28;20043;-64
2022/06/13 19:38:37;;;;;;;2.63;0.70;;;;;;;17.89;58.71;101269.56;8217982;28;20058;-64
2022/06/13 19:42:40;;;;;;;6.40;1.00;;;;;;;17.78;58.89;101283.56;8218063;28;20509;-64
2022/06/13 19:46:41;;;;;;;4.88;0.90;;;;;;;17.73;59.27;101291.44;8218320;28;20124;-64
2022/06/13 19:50:43;;;;;;;3.22;1.20;;;;;;;17.59;59.90;101292.06;8214239;28;20126;-64
2022/06/13 19:54:44;;;;;;;6.07;1.50;;;;;;;17.48;60.78;101306.06;8216780;28;20043;-64
2022/06/13 19:58:45;;;;;;;3.05;0.70;;;;;;;17.37;61.17;101306.31;8201890;28;20049;-64
2022/06/13 20:02:45;;;;;;;4.18;0.80;;;;;;;17.26;61.27;101310.19;8219981;28;20042;-64
2022/06/13 20:11:08;;;;;;;6.75;1.10;;;;;;;17.10;62.23;101322.94;8282000;28;20051;-64
2022/06/13 20:15:10;;;;;;;7.57;1.23;;;;;;;17.02;64.34;101315.53;8299677;28;20556;-64
2022/06/13 20:19:33;;;;;;;5.80;0.93;;;;;;;16.81;64.99;101325.16;8275550;28;20388;-64
2022/06/13 20:23:33;;;;;;;5.38;1.30;;;;;;;16.75;63.97;101320.34;8275844;28;20124;-64